Steve Irwin — PC9093 — position and weather

sailwx.info

Track history (hours):
 
Tides and Currents Weather Stations Pressure Air Temp Water Temp Dewpoint Dewpoint Depression Visibility Wind Speed Wind Dir Waves Ship Positions

Steve Irwin

Last reported at 2016-Aug-26 07:33 UTC. Time now 2016-Dec-02 18:04 UTC.
Position S 38°51' E 142°34'.
Warning: this ship's position is months out of date.

Length 60 m; draft 4.9 m.

Type: Pleasure craft. MMSI: 244943000.

Date/timePositionNaut miles runAvg speedWind from/ knotsBaromVisibWave heightAir tempDewpointWater temp
2016-Aug-26 07:33S 38°51' E 142°34'9 9.0
2016-Aug-26 06:33S 38°49' E 142°22'18 8.9
2016-Aug-26 04:33S 38°45' E 142°00'9 8.8
2016-Aug-26 03:30S 38°44' E 141°48'  
2016-Aug-22 05:33S 35°33' E 137°51'1414.1
2016-Aug-22 04:33S 35°22' E 138°01'1414.2
2016-Aug-22 03:34S 35°10' E 138°10'1414.4
2016-Aug-22 02:33S 34°57' E 138°19'10 9.6
2016-Aug-22 01:33S 34°50' E 138°26'4 3.9
2016-Aug-22 00:33S 34°49' E 138°31'1 1.3
2016-Aug-21 23:32S 34°51' E 138°30'0 0.0
2016-Aug-21 22:32S 34°51' E 138°30'  
2016-Aug-19 01:31S 34°51' E 138°30'0 0.3
2016-Aug-19 00:34S 34°50' E 138°30'4 4.3
2016-Aug-18 23:33S 34°46' E 138°29'7 6.5
2016-Aug-18 22:33S 34°50' E 138°23'6 6.3
2016-Aug-18 21:32S 34°55' E 138°19'5 5.0
2016-Aug-18 20:33S 34°59' E 138°15'5 5.1
2016-Aug-18 19:31S 35°04' E 138°13'13 5.7
2016-Aug-18 17:18S 35°15' E 138°06'  
Track history (hours):
 
Tides and Currents Weather Stations Pressure Air Temp Water Temp Dewpoint Dewpoint Depression Visibility Wind Speed Wind Dir Waves Ship Positions

Steve Irwin

Last reported at 2016-Aug-26 07:33 UTC. Time now 2016-Dec-02 18:04 UTC.
Position S 38°51' E 142°34'.
Warning: this ship's position is months out of date.

Length 60 m; draft 4.9 m.

Type: Pleasure craft. MMSI: 244943000.

Date/timePositionNaut miles runAvg speedWind from/ knotsBaromVisibWave heightAir tempDewpointWater temp
2016-Aug-26 07:33S 38°51' E 142°34'9 9.0
2016-Aug-26 06:33S 38°49' E 142°22'18 8.9
2016-Aug-26 04:33S 38°45' E 142°00'9 8.8
2016-Aug-26 03:30S 38°44' E 141°48'  
2016-Aug-22 05:33S 35°33' E 137°51'1414.1
2016-Aug-22 04:33S 35°22' E 138°01'1414.2
2016-Aug-22 03:34S 35°10' E 138°10'1414.4
2016-Aug-22 02:33S 34°57' E 138°19'10 9.6
2016-Aug-22 01:33S 34°50' E 138°26'4 3.9
2016-Aug-22 00:33S 34°49' E 138°31'1 1.3
2016-Aug-21 23:32S 34°51' E 138°30'0 0.0
2016-Aug-21 22:32S 34°51' E 138°30'  
2016-Aug-19 01:31S 34°51' E 138°30'0 0.3
2016-Aug-19 00:34S 34°50' E 138°30'4 4.3
2016-Aug-18 23:33S 34°46' E 138°29'7 6.5
2016-Aug-18 22:33S 34°50' E 138°23'6 6.3
2016-Aug-18 21:32S 34°55' E 138°19'5 5.0
2016-Aug-18 20:33S 34°59' E 138°15'5 5.1
2016-Aug-18 19:31S 35°04' E 138°13'13 5.7
2016-Aug-18 17:18S 35°15' E 138°06'  

Dump ship's entire track history